Current | Forecast
Updated: 2:00 PM EET on June 27, 2017
Observed at Kaliningrad, Poland
Temperature 61°F
Humidity 59%
Dew Point 46°F
Wind WNW at 11 mph
Pressure 29.92 in (Steady)
Conditions Mostly Cloudy
Visibility 6.2 miles
UV 5 out of 16
Clouds Mostly Cloudy (BKN) : 2600 ft
Yesterday's Maximum 64°F
Yesterday's Minimum 55°F approx.
Yesterday's Heating Degree Days 5 approx.
Sunrise4:05 AM CEST
Sunset9:17 PM CEST
Moon Rise8:18 AM CEST
Moon Set11:25 PM CEST
Moon PhaseMoon Phase
Waxing Crescent
Raw METARMETAR UMKK 271200Z 29005MPS 250V330 9999 BKN026 16/08 Q1013 R24/CLRD60 NOSIG RMK QFE759/1012


Monday
. High: 55° F.
Tuesday
. High: 55° F.
Wednesday
. High: 69° F.
Thursday
. High: 55° F.
Friday
. High: 62° F.
Saturday
. High: 57° F.
Sunday
. High: 66° F.
Monday
. High: 62° F.

Click here for Marine Information
Scientific forecaster discussion (NWS)

Units: English | Metric

Find the Weather for any City, State or Zipcode, or Country:

U.S. State List | Severe Weather | Tropical Storms | Ski Conditions
United States | Canada | Central America | South America | Asia | Europe | Australia | Africa | Islands

Weather Underground

© Copyright 2017
The Weather Company, LLC